Time;durP1;ratioP1;P1;durP2;ratioP2;P2;SDS_P1;SDS_P2;PMS_P1;PMS_P2;Temp;Humidity;BMP_temperature;BMP_pressure;BME280_temperature;BME280_humidity;BME280_pressure;Samples;Min_cycle;Max_cycle;Signal;HPM_P1;HPM_P2
2022/10/28 00:02:39;;;;;;;1.30;0.80;;;22.60;61.70;;;;;;6170707;28;20053;-56
2022/10/28 00:05:41;;;;;;;2.03;1.02;;;23.00;61.90;;;;;;6179999;28;20103;-56
2022/10/28 00:08:43;;;;;;;1.17;1.02;;;23.10;62.20;;;;;;6180603;28;20219;-57
2022/10/28 00:11:44;;;;;;;1.85;1.00;;;23.30;62.10;;;;;;6178982;28;21024;-58
2022/10/28 00:14:46;;;;;;;;;;;23.10;62.00;;;;;;6185750;28;20100;-58
2022/10/28 00:17:47;;;;;;;1.50;0.82;;;23.00;62.30;;;;;;6174809;28;19937;-56
2022/10/28 00:20:51;;;;;;;1.23;1.00;;;23.40;62.20;;;;;;6160717;28;20042;-58
2022/10/28 00:23:54;;;;;;;1.65;0.80;;;23.10;62.00;;;;;;6188976;28;20116;-58
2022/10/28 00:26:55;;;;;;;2.03;0.77;;;23.20;62.00;;;;;;6168371;28;20069;-56
2022/10/28 00:29:57;;;;;;;;;;;23.30;62.10;;;;;;6184387;28;20211;-59
2022/10/28 00:33:01;;;;;;;1.52;0.90;;;23.30;62.40;;;;;;6187972;28;20683;-57
2022/10/28 00:36:09;;;;;;;1.70;1.00;;;23.00;61.90;;;;;;6184344;28;20038;-56
2022/10/28 00:39:12;;;;;;;1.60;0.82;;;23.00;61.60;;;;;;6152625;28;20038;-56
2022/10/28 00:42:17;;;;;;;1.33;1.00;;;23.10;61.80;;;;;;6181655;28;20855;-55
2022/10/28 00:45:19;;;;;;;1.10;0.82;;;23.10;61.70;;;;;;6204999;23;20041;-57
2022/10/28 00:48:20;;;;;;;1.48;0.95;;;23.40;62.40;;;;;;6233917;28;20140;-58
2022/10/28 00:51:26;;;;;;;;;;;23.10;62.10;;;;;;6257311;28;20036;-57
2022/10/28 00:54:29;;;;;;;1.23;1.00;;;22.70;62.10;;;;;;6252502;28;19931;-58
2022/10/28 00:57:34;;;;;;;1.70;1.08;;;22.90;62.00;;;;;;6245457;28;20091;-58
2022/10/28 01:00:35;;;;;;;1.77;1.10;;;23.00;62.00;;;;;;6242599;28;20159;-57
2022/10/28 01:03:37;;;;;;;;;;;22.90;62.10;;;;;;6259151;28;20044;-57
2022/10/28 01:06:39;;;;;;;1.20;0.90;;;23.20;62.20;;;;;;6252747;28;19924;-58
2022/10/28 01:09:42;;;;;;;2.22;0.90;;;23.00;62.10;;;;;;6254669;28;20051;-59
2022/10/28 01:12:57;;;;;;;1.15;0.82;;;22.80;61.90;;;;;;6249975;28;20040;-56
2022/10/28 01:16:05;;;;;;;1.30;0.90;;;23.20;62.30;;;;;;6252959;28;20044;-55
2022/10/28 01:19:27;;;;;;;0.85;0.80;;;23.10;62.30;;;;;;6249510;28;20039;-55
2022/10/28 01:22:36;;;;;;;1.08;0.70;;;23.20;62.20;;;;;;6227463;28;20044;-56
2022/10/28 01:26:06;;;;;;;1.05;0.57;;;22.80;62.00;;;;;;6202393;28;20198;-57
2022/10/28 01:29:32;;;;;;;1.25;0.90;;;22.90;62.00;;;;;;6225741;28;20077;-54
2022/10/28 01:32:43;;;;;;;1.52;0.77;;;23.00;62.10;;;;;;6251067;28;20032;-55
2022/10/28 01:35:52;;;;;;;1.60;0.80;;;23.10;62.10;;;;;;6249715;28;20036;-54
2022/10/28 01:39:00;;;;;;;0.75;0.50;;;23.00;62.10;;;;;;6237967;28;20491;-54
2022/10/28 01:42:13;;;;;;;1.00;0.85;;;23.00;62.00;;;;;;6229981;28;20150;-56
2022/10/28 01:45:18;;;;;;;0.77;0.68;;;23.00;62.00;;;;;;6215991;28;20147;-54
2022/10/28 01:48:25;;;;;;;0.73;0.60;;;22.80;61.80;;;;;;6228180;28;20105;-53
2022/10/28 01:51:31;;;;;;;1.17;0.90;;;23.20;62.00;;;;;;6219577;28;21672;-56
2022/10/28 01:54:34;;;;;;;1.00;0.70;;;22.90;61.80;;;;;;6204912;28;20045;-58
2022/10/28 01:57:39;;;;;;;0.82;0.68;;;23.00;61.70;;;;;;6209521;28;20041;-56
2022/10/28 02:00:43;;;;;;;1.25;0.93;;;23.10;61.80;;;;;;6223006;28;20570;-58
2022/10/28 02:03:47;;;;;;;0.70;0.60;;;22.60;61.50;;;;;;6223227;28;20471;-56
2022/10/28 02:06:52;;;;;;;0.82;0.70;;;23.00;61.80;;;;;;6228134;28;20037;-56
2022/10/28 02:10:02;;;;;;;1.92;0.50;;;22.70;61.20;;;;;;6234698;28;20048;-55
2022/10/28 02:13:11;;;;;;;1.43;0.70;;;22.50;61.10;;;;;;6227493;28;20114;-57
2022/10/28 02:16:21;;;;;;;0.95;0.80;;;22.60;61.30;;;;;;6214016;28;20518;-53
2022/10/28 02:19:34;;;;;;;1.25;0.80;;;22.80;61.10;;;;;;6213791;28;20592;-56
2022/10/28 02:22:44;;;;;;;1.17;0.70;;;23.00;61.30;;;;;;6191387;28;20159;-54
2022/10/28 02:25:54;;;;;;;1.10;0.60;;;22.60;61.10;;;;;;6199850;28;20173;-57
2022/10/28 02:29:01;;;;;;;0.80;0.50;;;22.70;61.20;;;;;;6207276;28;20122;-57
2022/10/28 02:32:07;;;;;;;0.80;0.60;;;22.70;61.10;;;;;;6226003;28;20186;-58
2022/10/28 02:35:14;;;;;;;1.50;0.80;;;22.90;61.90;;;;;;6226344;28;20122;-55
2022/10/28 02:38:20;;;;;;;0.88;0.60;;;23.00;61.20;;;;;;6203594;28;20048;-53
2022/10/28 02:41:25;;;;;;;0.77;0.63;;;23.10;61.20;;;;;;6211575;28;20486;-55
2022/10/28 02:44:30;;;;;;;1.20;0.75;;;23.00;61.10;;;;;;6192279;28;20069;-54
2022/10/28 02:47:36;;;;;;;1.15;0.70;;;22.60;60.90;;;;;;6210551;28;20433;-57
2022/10/28 02:50:42;;;;;;;0.80;0.60;;;23.10;61.20;;;;;;6220646;28;20051;-53
2022/10/28 02:53:57;;;;;;;1.55;0.85;;;22.70;60.90;;;;;;6228219;28;20334;-54
2022/10/28 02:57:03;;;;;;;0.80;0.75;;;23.00;61.00;;;;;;6231450;28;20103;-54
2022/10/28 03:00:08;;;;;;;1.00;0.52;;;22.90;61.00;;;;;;6230414;28;20052;-56
2022/10/28 03:03:10;;;;;;;1.83;0.80;;;22.80;60.90;;;;;;6194163;28;20150;-56
2022/10/28 03:06:12;;;;;;;0.95;0.60;;;23.00;61.20;;;;;;6226650;28;20445;-58
2022/10/28 03:09:16;;;;;;;1.05;0.65;;;23.00;61.30;;;;;;6222128;28;20053;-55
2022/10/28 03:12:18;;;;;;;0.93;0.80;;;22.90;61.10;;;;;;6220771;28;20656;-53
2022/10/28 03:15:19;;;;;;;;;;;22.80;61.10;;;;;;6227842;28;20600;-53
2022/10/28 03:18:20;;;;;;;0.90;0.60;;;22.70;61.30;;;;;;6227346;28;19928;-55
2022/10/28 03:21:22;;;;;;;;;;;23.00;61.40;;;;;;6200709;28;20151;-54
2022/10/28 03:24:24;;;;;;;1.48;0.90;;;22.50;61.20;;;;;;6225919;28;19947;-54
2022/10/28 03:27:25;;;;;;;;;;;22.30;60.80;;;;;;6233531;28;20442;-56
2022/10/28 03:30:27;;;;;;;1.02;0.70;;;22.60;61.50;;;;;;6222035;28;19925;-55
2022/10/28 03:33:28;;;;;;;;;;;23.00;61.60;;;;;;6226341;28;20123;-54
2022/10/28 03:36:30;;;;;;;1.00;0.77;;;22.50;61.40;;;;;;6236910;28;20005;-55
2022/10/28 03:39:35;;;;;;;0.77;0.65;;;22.60;61.50;;;;;;6215823;28;20096;-53
2022/10/28 03:42:36;;;;;;;1.08;0.80;;;23.00;61.60;;;;;;6230201;28;20161;-53
2022/10/28 03:45:42;;;;;;;1.38;0.82;;;22.60;61.60;;;;;;6218020;28;20853;-51
2022/10/28 03:48:43;;;;;;;;;;;23.00;61.80;;;;;;6232396;28;20629;-51
2022/10/28 03:51:45;;;;;;;1.63;0.90;;;23.10;62.00;;;;;;6237569;28;19924;-51
2022/10/28 03:54:46;;;;;;;0.88;0.80;;;22.70;61.70;;;;;;6231412;28;20305;-53
2022/10/28 03:57:51;;;;;;;;;;;22.90;61.80;;;;;;6237411;28;20151;-54
2022/10/28 04:00:53;;;;;;;1.30;0.80;;;22.50;61.80;;;;;;6233704;28;20334;-55
2022/10/28 04:03:55;;;;;;;1.17;0.80;;;22.50;61.60;;;;;;6214174;28;20393;-53
2022/10/28 04:06:56;;;;;;;;;;;22.70;61.90;;;;;;6216656;28;20049;-55
2022/10/28 04:09:58;;;;;;;;;;;22.40;62.00;;;;;;6219981;28;20083;-54
2022/10/28 04:13:00;;;;;;;;;;;22.90;61.40;;;;;;6202682;28;19929;-53
2022/10/28 04:16:01;;;;;;;1.23;0.80;;;22.80;62.10;;;;;;6216363;28;19960;-56
2022/10/28 04:19:02;;;;;;;;;;;22.70;61.70;;;;;;6215798;28;20454;-56
2022/10/28 04:22:04;;;;;;;1.20;0.93;;;22.40;62.20;;;;;;6217238;28;19995;-56
2022/10/28 04:25:06;;;;;;;1.45;0.80;;;22.60;62.00;;;;;;6225230;28;20083;-55
2022/10/28 04:28:08;;;;;;;0.90;0.73;;;22.60;61.90;;;;;;6220747;28;20559;-54
2022/10/28 04:31:11;;;;;;;1.30;0.70;;;22.80;62.30;;;;;;6216492;28;20829;-55
2022/10/28 04:34:12;;;;;;;1.20;1.00;;;22.50;62.10;;;;;;6218417;28;20389;-55
2022/10/28 04:37:14;;;;;;;1.05;0.80;;;22.40;62.00;;;;;;6223851;28;20540;-53
2022/10/28 04:40:21;;;;;;;0.95;0.75;;;22.40;62.00;;;;;;6213685;28;20144;-55
2022/10/28 04:43:23;;;;;;;0.95;0.63;;;22.80;62.20;;;;;;6190577;28;20187;-53
2022/10/28 04:46:24;;;;;;;1.30;0.80;;;22.80;62.30;;;;;;6210657;28;21004;-53
2022/10/28 04:49:26;;;;;;;;;;;22.50;62.20;;;;;;6186054;28;20670;-52
2022/10/28 04:52:28;;;;;;;1.05;0.60;;;22.80;62.70;;;;;;6203482;28;20854;-50
2022/10/28 04:55:29;;;;;;;1.05;0.77;;;22.90;62.40;;;;;;6221354;28;20225;-54
2022/10/28 04:58:31;;;;;;;0.90;0.70;;;23.50;62.70;;;;;;6205706;28;21451;-54
2022/10/28 05:01:32;;;;;;;1.00;0.77;;;22.70;62.30;;;;;;6193918;28;20066;-53
2022/10/28 05:04:34;;;;;;;1.25;0.80;;;22.90;62.50;;;;;;6194513;28;20037;-53
2022/10/28 05:07:37;;;;;;;;;;;22.70;62.50;;;;;;6207933;28;20171;-55
2022/10/28 05:10:38;;;;;;;1.17;0.82;;;22.40;62.60;;;;;;6221208;28;19924;-54
2022/10/28 05:13:40;;;;;;;1.02;0.82;;;22.80;62.90;;;;;;6227800;28;20091;-56
2022/10/28 05:16:41;;;;;;;1.45;0.80;;;22.60;62.20;;;;;;6222714;28;20590;-52
2022/10/28 05:19:44;;;;;;;;;;;22.30;62.10;;;;;;6209126;28;20290;-53
2022/10/28 05:22:46;;;;;;;1.15;0.90;;;22.80;62.70;;;;;;6196599;28;19964;-53
2022/10/28 05:25:48;;;;;;;1.30;0.80;;;22.50;62.10;;;;;;6190168;28;20116;-55
2022/10/28 05:28:50;;;;;;;1.45;0.80;;;22.50;62.00;;;;;;6184829;28;20059;-53
2022/10/28 05:31:51;;;;;;;1.15;0.80;;;22.70;62.20;;;;;;6225715;28;20959;-56
2022/10/28 05:34:53;;;;;;;1.38;0.88;;;22.60;62.20;;;;;;6210044;28;20037;-56
2022/10/28 05:37:55;;;;;;;;;;;22.60;62.30;;;;;;6217133;28;21976;-54
2022/10/28 05:40:56;;;;;;;1.23;0.70;;;22.70;62.50;;;;;;6193497;28;20035;-54
2022/10/28 05:43:58;;;;;;;;;;;22.40;62.20;;;;;;6226416;28;20491;-56
2022/10/28 05:46:59;;;;;;;0.90;0.80;;;22.40;62.30;;;;;;6217432;28;19935;-53
2022/10/28 05:50:01;;;;;;;;;;;22.70;62.40;;;;;;6203201;28;20048;-54
2022/10/28 05:53:03;;;;;;;1.20;0.77;;;22.20;62.40;;;;;;6218375;28;21182;-53
2022/10/28 05:56:04;;;;;;;1.30;0.88;;;22.70;62.50;;;;;;6204529;28;20928;-54
2022/10/28 05:59:06;;;;;;;0.90;0.73;;;23.20;62.60;;;;;;6184080;28;20163;-55
2022/10/28 06:02:13;;;;;;;0.68;0.63;;;22.30;62.30;;;;;;6186818;28;20128;-53
2022/10/28 06:05:15;;;;;;;1.60;0.80;;;22.70;62.40;;;;;;6168421;28;20143;-53
2022/10/28 06:08:17;;;;;;;1.15;0.85;;;22.70;62.50;;;;;;6176052;28;21214;-54
2022/10/28 06:11:18;;;;;;;1.05;0.95;;;22.60;62.30;;;;;;6149773;28;20087;-54
2022/10/28 06:14:20;;;;;;;1.23;1.00;;;22.90;62.60;;;;;;6207128;28;22407;-58
2022/10/28 06:17:21;;;;;;;;;;;22.70;62.40;;;;;;6211678;28;20069;-56
2022/10/28 06:20:23;;;;;;;1.55;0.60;;;22.40;62.40;;;;;;6178883;28;20489;-54
2022/10/28 06:23:27;;;;;;;0.65;0.60;;;22.90;62.30;;;;;;6194282;22;21018;-55
2022/10/28 06:26:28;;;;;;;0.75;0.73;;;22.40;62.00;;;;;;6153630;28;20037;-56
2022/10/28 06:29:31;;;;;;;;;;;22.70;62.20;;;;;;6171089;28;20056;-52
2022/10/28 06:32:32;;;;;;;1.05;0.90;;;23.20;62.70;;;;;;6174728;28;19928;-55
2022/10/28 06:35:34;;;;;;;0.65;0.65;;;22.50;62.00;;;;;;6149587;28;20041;-55
2022/10/28 06:38:36;;;;;;;;;;;23.10;62.40;;;;;;6145057;28;20127;-54
2022/10/28 06:41:37;;;;;;;0.80;0.70;;;22.80;62.40;;;;;;6157264;28;19928;-54
2022/10/28 06:44:39;;;;;;;1.13;0.63;;;22.80;62.20;;;;;;6147500;28;20076;-54
2022/10/28 06:47:40;;;;;;;;;;;23.00;62.10;;;;;;6140296;28;21335;-54
2022/10/28 06:50:42;;;;;;;0.82;0.57;;;22.90;62.60;;;;;;6152774;22;19929;-54
2022/10/28 06:53:48;;;;;;;;;;;22.70;62.50;;;;;;6088235;28;21087;-52
2022/10/28 06:56:49;;;;;;;0.85;0.60;;;23.00;62.60;;;;;;6096883;28;20927;-54
2022/10/28 06:59:51;;;;;;;0.80;0.60;;;22.30;62.30;;;;;;6098274;28;20115;-54
2022/10/28 07:02:53;;;;;;;1.88;0.60;;;22.90;62.80;;;;;;6105263;28;21974;-51
2022/10/28 07:05:59;;;;;;;0.73;0.50;;;22.60;62.60;;;;;;6069314;28;20151;-54
2022/10/28 07:09:01;;;;;;;0.80;0.65;;;22.60;62.80;;;;;;6008800;28;20160;-56
2022/10/28 07:12:04;;;;;;;0.90;0.60;;;23.00;63.00;;;;;;6081511;28;20055;-56
2022/10/28 07:15:08;;;;;;;0.60;0.55;;;22.90;62.90;;;;;;6083003;28;20143;-55
2022/10/28 07:18:10;;;;;;;1.45;0.60;;;22.60;62.90;;;;;;6065769;28;20051;-57
2022/10/28 07:21:12;;;;;;;;;;;22.90;63.40;;;;;;6067734;28;20050;-56
2022/10/28 07:24:14;;;;;;;0.55;0.40;;;23.00;63.40;;;;;;6062393;28;20044;-56
2022/10/28 07:27:16;;;;;;;0.82;0.50;;;23.00;63.40;;;;;;6057714;28;20048;-55
2022/10/28 07:30:18;;;;;;;;;;;23.50;63.80;;;;;;6075988;28;20080;-56
2022/10/28 07:33:19;;;;;;;1.05;0.50;;;23.00;63.80;;;;;;6055171;28;20039;-56
2022/10/28 07:36:21;;;;;;;1.00;0.70;;;22.60;63.30;;;;;;6064474;28;20037;-55
2022/10/28 07:39:23;;;;;;;1.13;0.60;;;22.90;63.80;;;;;;6054507;28;20080;-57
2022/10/28 07:42:27;;;;;;;0.95;0.60;;;23.10;63.70;;;;;;6091241;28;20049;-55
2022/10/28 07:45:30;;;;;;;0.90;0.70;;;23.10;64.00;;;;;;6078912;28;20746;-56
2022/10/28 07:48:32;;;;;;;1.15;0.65;;;23.10;64.10;;;;;;6090693;28;20139;-56
2022/10/28 07:51:34;;;;;;;1.42;0.85;;;23.10;64.00;;;;;;6064635;28;20056;-56
2022/10/28 07:54:36;;;;;;;0.70;0.57;;;23.00;63.90;;;;;;6056251;28;20931;-57
2022/10/28 07:57:37;;;;;;;1.58;0.70;;;23.10;64.10;;;;;;6057694;28;20049;-56
2022/10/28 08:00:39;;;;;;;1.10;0.60;;;22.80;64.00;;;;;;6072311;28;21509;-56
2022/10/28 08:03:41;;;;;;;0.98;0.50;;;22.80;64.00;;;;;;6043656;28;20208;-53
2022/10/28 08:06:43;;;;;;;1.20;0.80;;;23.00;64.10;;;;;;6033138;28;21514;-54
2022/10/28 08:09:45;;;;;;;0.47;0.40;;;23.10;64.10;;;;;;6062541;28;21247;-54
2022/10/28 08:12:46;;;;;;;0.95;0.70;;;22.90;64.00;;;;;;6059342;28;21979;-56
2022/10/28 08:15:50;;;;;;;;;;;23.20;64.20;;;;;;6073151;28;21402;-56
2022/10/28 08:18:52;;;;;;;0.82;0.60;;;22.90;64.10;;;;;;6055538;28;20505;-55
2022/10/28 08:21:53;;;;;;;1.15;0.70;;;23.10;64.00;;;;;;6055348;28;20056;-55
2022/10/28 08:24:55;;;;;;;0.70;0.50;;;22.80;63.80;;;;;;6073090;28;20048;-54
2022/10/28 08:27:57;;;;;;;0.90;0.50;;;23.00;63.90;;;;;;6074548;28;20779;-53
2022/10/28 08:31:01;;;;;;;0.70;0.60;;;23.20;64.40;;;;;;6071523;28;20041;-53
2022/10/28 08:34:12;;;;;;;1.25;0.40;;;23.20;64.20;;;;;;6038587;28;20202;-52
2022/10/28 08:37:14;;;;;;;1.27;0.52;;;23.30;64.20;;;;;;6065228;28;20115;-51
2022/10/28 08:40:24;;;;;;;0.82;0.43;;;23.20;64.10;;;;;;6067589;28;20053;-52
2022/10/28 08:43:32;;;;;;;0.73;0.40;;;22.90;63.80;;;;;;6048961;28;21495;-54
2022/10/28 08:47:09;;;;;;;0.55;0.47;;;23.10;63.80;;;;;;6047956;28;21399;-53
2022/10/28 08:50:14;;;;;;;0.70;0.40;;;23.00;63.60;;;;;;6037143;28;20052;-55
2022/10/28 08:53:20;;;;;;;1.00;0.60;;;23.10;63.70;;;;;;6028646;28;20065;-56
2022/10/28 08:56:29;;;;;;;0.45;0.40;;;22.90;63.40;;;;;;6032965;28;20037;-56
2022/10/28 08:59:37;;;;;;;3.33;0.57;;;23.30;63.60;;;;;;6062773;28;22253;-56
2022/10/28 09:02:50;;;;;;;0.82;0.40;;;23.50;63.80;;;;;;6054337;28;20030;-57
2022/10/28 09:05:59;;;;;;;0.50;0.38;;;23.30;63.50;;;;;;6105896;28;20050;-52
2022/10/28 09:09:00;;;;;;;0.98;0.40;;;23.20;63.50;;;;;;6081959;28;20053;-55
2022/10/28 09:12:16;;;;;;;0.60;0.40;;;23.30;63.60;;;;;;6092406;28;20164;-53
2022/10/28 09:15:30;;;;;;;0.60;0.32;;;23.30;63.40;;;;;;6084776;28;20057;-54
2022/10/28 09:18:49;;;;;;;0.50;0.40;;;23.50;63.50;;;;;;6078163;28;20301;-54
2022/10/28 09:22:06;;;;;;;1.00;0.40;;;23.70;63.40;;;;;;6077475;28;20042;-54
2022/10/28 09:25:20;;;;;;;0.63;0.47;;;23.50;63.20;;;;;;6092589;28;22201;-53
2022/10/28 09:28:41;;;;;;;0.82;0.55;;;23.40;63.10;;;;;;6085333;28;20957;-55
2022/10/28 09:31:47;;;;;;;0.88;0.57;;;23.10;62.80;;;;;;6056421;28;20041;-54
2022/10/28 09:34:53;;;;;;;0.80;0.40;;;23.50;63.20;;;;;;6079306;28;22341;-54
2022/10/28 09:38:01;;;;;;;0.80;0.68;;;23.60;63.10;;;;;;6059693;28;21279;-54
2022/10/28 09:41:06;;;;;;;0.30;0.30;;;23.10;62.70;;;;;;6078443;28;20049;-56
2022/10/28 09:44:14;;;;;;;0.80;0.40;;;23.50;62.80;;;;;;6095733;28;22498;-52
2022/10/28 09:47:21;;;;;;;1.20;0.50;;;23.50;62.80;;;;;;6055982;28;20539;-56
2022/10/28 09:50:27;;;;;;;0.55;0.40;;;22.90;62.30;;;;;;6055961;28;20980;-56
2022/10/28 09:53:39;;;;;;;0.75;0.40;;;23.30;62.50;;;;;;6041645;28;20235;-57
2022/10/28 09:56:41;;;;;;;0.73;0.57;;;23.50;62.70;;;;;;6057689;28;20045;-52
2022/10/28 09:59:43;;;;;;;1.23;0.30;;;23.40;62.70;;;;;;6025470;28;20160;-56
2022/10/28 10:02:45;;;;;;;0.60;0.40;;;23.50;62.50;;;;;;6039882;28;20056;-55
2022/10/28 10:05:51;;;;;;;0.80;0.40;;;23.50;62.50;;;;;;6037367;28;22242;-58
2022/10/28 10:08:54;;;;;;;0.63;0.45;;;23.60;62.30;;;;;;6033655;28;20049;-57
2022/10/28 10:12:01;;;;;;;0.30;0.30;;;23.70;62.30;;;;;;6063674;28;20041;-59
2022/10/28 10:15:06;;;;;;;0.60;0.30;;;23.70;62.30;;;;;;6079304;28;20452;-56
2022/10/28 10:18:16;;;;;;;0.60;0.25;;;23.60;62.00;;;;;;6055291;28;20373;-55
2022/10/28 10:21:36;;;;;;;0.70;0.30;;;23.40;61.90;;;;;;6021576;28;20041;-57
2022/10/28 10:24:44;;;;;;;0.43;0.32;;;24.00;62.20;;;;;;6093208;28;20127;-56
2022/10/28 10:27:50;;;;;;;0.80;0.35;;;23.80;62.00;;;;;;6058980;28;20037;-56
2022/10/28 10:30:56;;;;;;;0.28;0.22;;;23.50;61.70;;;;;;6083659;28;21950;-59
2022/10/28 10:33:58;;;;;;;0.73;0.20;;;23.50;61.80;;;;;;5999690;28;20091;-57
2022/10/28 10:37:03;;;;;;;0.30;0.20;;;23.30;61.50;;;;;;6073191;28;20048;-59
2022/10/28 10:40:20;;;;;;;0.57;0.30;;;23.90;61.80;;;;;;6099569;28;20053;-54
2022/10/28 10:43:28;;;;;;;0.63;0.20;;;23.70;61.50;;;;;;6101476;28;20104;-57
2022/10/28 10:46:30;;;;;;;0.30;0.20;;;23.50;61.40;;;;;;6108527;28;20042;-55
2022/10/28 10:49:33;;;;;;;0.93;0.25;;;23.80;61.50;;;;;;6067708;28;20732;-52
2022/10/28 10:52:35;;;;;;;0.82;0.20;;;23.90;61.40;;;;;;6103633;28;20597;-53
2022/10/28 10:55:40;;;;;;;0.68;0.20;;;23.70;61.30;;;;;;6054419;28;20053;-53
2022/10/28 10:58:50;;;;;;;1.00;0.30;;;23.70;61.20;;;;;;6125672;28;20372;-55
2022/10/28 11:01:54;;;;;;;1.00;0.35;;;23.90;61.20;;;;;;6088062;28;21872;-52
2022/10/28 11:04:58;;;;;;;0.38;0.25;;;23.50;60.90;;;;;;6070661;28;20034;-56
2022/10/28 11:08:05;;;;;;;0.32;0.10;;;23.90;61.10;;;;;;6052309;28;21043;-55
2022/10/28 11:11:12;;;;;;;1.15;0.40;;;23.80;61.00;;;;;;6101782;28;20138;-51
2022/10/28 11:14:23;;;;;;;0.40;0.20;;;24.00;60.90;;;;;;6126616;28;20847;-53
2022/10/28 11:17:26;;;;;;;;;;;23.70;60.70;;;;;;6103085;28;20193;-55
2022/10/28 11:20:42;;;;;;;0.50;0.20;;;23.90;61.20;;;;;;6104938;28;20372;-54
2022/10/28 11:23:55;;;;;;;0.40;0.20;;;23.70;60.70;;;;;;6108556;28;20056;-55
2022/10/28 11:27:05;;;;;;;0.63;0.20;;;23.50;60.50;;;;;;6124688;28;20038;-56
2022/10/28 11:30:13;;;;;;;0.35;0.20;;;23.60;60.40;;;;;;6053176;28;20051;-57
2022/10/28 11:33:19;;;;;;;0.30;0.17;;;24.00;60.60;;;;;;6101631;28;20533;-54
2022/10/28 11:36:43;;;;;;;0.40;0.28;;;24.10;60.60;;;;;;6070252;28;20057;-54
2022/10/28 11:40:00;;;;;;;0.77;0.30;;;23.60;60.40;;;;;;6056883;28;20960;-54
2022/10/28 11:43:13;;;;;;;2.05;0.30;;;24.00;60.40;;;;;;6092902;28;20665;-52
2022/10/28 11:46:29;;;;;;;0.32;0.30;;;24.00;60.40;;;;;;6088733;28;20575;-52
2022/10/28 11:50:00;;;;;;;0.60;0.43;;;24.00;60.30;;;;;;5996535;28;21332;-55
2022/10/28 11:53:27;;;;;;;0.47;0.28;;;24.10;60.30;;;;;;6096067;28;20084;-54
2022/10/28 11:56:34;;;;;;;0.68;0.20;;;23.70;60.00;;;;;;6016382;28;20053;-58
2022/10/28 12:00:01;;;;;;;0.50;0.20;;;24.00;60.20;;;;;;5991788;28;20046;-55
2022/10/28 12:03:27;;;;;;;0.80;0.30;;;24.00;60.10;;;;;;6048189;28;21309;-54
2022/10/28 12:06:47;;;;;;;0.95;0.30;;;24.00;60.10;;;;;;6076512;28;20049;-55
2022/10/28 12:10:05;;;;;;;1.00;0.22;;;23.70;59.80;;;;;;6036648;28;20063;-52
2022/10/28 12:13:15;;;;;;;1.08;0.30;;;24.10;60.10;;;;;;6065727;28;20052;-51
2022/10/28 12:16:25;;;;;;;2.08;0.43;;;23.80;59.80;;;;;;6082631;28;20049;-54
2022/10/28 12:19:31;;;;;;;0.90;0.30;;;23.60;59.60;;;;;;6085397;28;20037;-54
2022/10/28 12:22:41;;;;;;;0.40;0.30;;;24.10;59.90;;;;;;6082832;28;20042;-53
2022/10/28 12:25:48;;;;;;;0.28;0.17;;;23.60;59.50;;;;;;6091320;28;22288;-56
2022/10/28 12:28:54;;;;;;;0.73;0.20;;;24.30;59.80;;;;;;6071460;28;20183;-55
2022/10/28 12:32:00;;;;;;;0.40;0.17;;;24.00;59.60;;;;;;6069294;28;21695;-51
2022/10/28 12:35:07;;;;;;;0.98;0.20;;;23.90;59.50;;;;;;6069326;28;20160;-54
2022/10/28 12:38:14;;;;;;;0.57;0.20;;;24.30;59.60;;;;;;6050043;28;20042;-53
2022/10/28 12:41:22;;;;;;;0.35;0.20;;;24.00;59.40;;;;;;6080733;28;20094;-53
2022/10/28 12:44:27;;;;;;;0.17;0.17;;;24.30;59.60;;;;;;6078472;28;20151;-54
2022/10/28 12:47:37;;;;;;;0.40;0.20;;;24.30;59.50;;;;;;6072404;28;20128;-54
2022/10/28 12:50:50;;;;;;;0.30;0.20;;;24.00;59.20;;;;;;6055682;28;20126;-54
2022/10/28 12:53:57;;;;;;;0.40;0.20;;;24.30;59.30;;;;;;6077729;28;20053;-55
2022/10/28 12:57:07;;;;;;;2.20;0.25;;;24.20;59.20;;;;;;6068154;28;20041;-54
2022/10/28 13:00:17;;;;;;;0.25;0.10;;;24.00;59.20;;;;;;6041814;28;20049;-54
2022/10/28 13:03:18;;;;;;;0.10;0.10;;;24.30;59.30;;;;;;6016383;28;20040;-50
2022/10/28 13:06:57;;;;;;;0.47;0.20;;;24.00;59.30;;;;;;6045111;28;20168;-53
2022/10/28 13:10:10;;;;;;;0.63;0.20;;;24.30;59.20;;;;;;6060650;28;20048;-53
2022/10/28 13:13:25;;;;;;;0.20;0.20;;;24.00;59.10;;;;;;6063856;28;20153;-52
2022/10/28 13:16:44;;;;;;;0.45;0.20;;;23.90;59.00;;;;;;6037197;28;20053;-51
2022/10/28 13:19:59;;;;;;;0.75;0.20;;;24.30;59.20;;;;;;6056453;23;20052;-53
2022/10/28 13:23:19;;;;;;;0.10;0.10;;;24.20;59.10;;;;;;6030318;28;20045;-53
2022/10/28 13:26:25;;;;;;;0.35;0.13;;;24.20;59.10;;;;;;6015883;28;20263;-55
2022/10/28 13:29:31;;;;;;;0.47;0.15;;;24.10;59.10;;;;;;6029389;28;20330;-50
2022/10/28 13:32:36;;;;;;;0.30;0.20;;;23.80;58.80;;;;;;6022399;28;20037;-55
2022/10/28 13:35:40;;;;;;;0.50;0.20;;;24.20;59.10;;;;;;6073520;28;20048;-54
2022/10/28 13:38:48;;;;;;;0.03;0.00;;;24.20;59.10;;;;;;6039765;28;20041;-55
2022/10/28 13:42:24;;;;;;;0.30;0.25;;;24.00;59.00;;;;;;6072303;28;20056;-55
2022/10/28 13:45:47;;;;;;;0.30;0.20;;;24.20;59.00;;;;;;6043032;28;20262;-52
2022/10/28 13:48:48;;;;;;;0.20;0.20;;;24.20;59.00;;;;;;6054684;28;20086;-53
2022/10/28 13:51:51;;;;;;;0.25;0.15;;;24.10;59.00;;;;;;6067815;28;20044;-51
2022/10/28 13:54:57;;;;;;;0.65;0.20;;;23.80;58.80;;;;;;6071501;28;20041;-57
2022/10/28 13:58:04;;;;;;;0.45;0.38;;;24.00;59.00;;;;;;6034808;28;20052;-55
2022/10/28 14:01:34;;;;;;;0.95;0.57;;;24.00;59.00;;;;;;6025984;28;20057;-56
2022/10/28 14:04:38;;;;;;;0.50;0.40;;;23.90;58.90;;;;;;5988834;28;20050;-55
2022/10/28 14:07:52;;;;;;;1.05;0.40;;;24.30;59.10;;;;;;6013369;28;20059;-55
2022/10/28 14:11:00;;;;;;;0.28;0.20;;;24.50;59.30;;;;;;6022074;28;20619;-55
2022/10/28 14:14:06;;;;;;;0.50;0.28;;;24.20;59.00;;;;;;6043794;28;20498;-53
2022/10/28 14:17:19;;;;;;;0.60;0.30;;;23.70;58.90;;;;;;6021478;28;20225;-56
2022/10/28 14:20:28;;;;;;;0.60;0.30;;;24.10;59.00;;;;;;5981962;28;20127;-54
2022/10/28 14:23:56;;;;;;;0.75;0.25;;;24.30;59.00;;;;;;6012094;28;20426;-52
2022/10/28 14:27:19;;;;;;;0.30;0.22;;;24.20;59.00;;;;;;6023491;28;20129;-52
2022/10/28 14:30:22;;;;;;;0.10;0.10;;;24.10;59.30;;;;;;6020680;28;21307;-57
2022/10/28 14:33:24;;;;;;;0.10;0.10;;;24.30;58.80;;;;;;6050652;28;20489;-54
2022/10/28 14:36:30;;;;;;;;;;;23.80;58.80;;;;;;6066061;28;20045;-53
2022/10/28 14:39:44;;;;;;;1.08;0.70;;;23.80;58.80;;;;;;6075542;28;20845;-57
2022/10/28 14:43:11;;;;;;;0.93;0.60;;;24.30;58.90;;;;;;6087688;28;21309;-56
2022/10/28 14:46:28;;;;;;;0.50;0.30;;;24.40;59.00;;;;;;6078191;28;20108;-51
2022/10/28 14:49:33;;;;;;;0.85;0.50;;;24.30;58.90;;;;;;6075739;28;21695;-52
2022/10/28 14:52:36;;;;;;;0.50;0.35;;;24.20;58.80;;;;;;6086641;28;20514;-55
2022/10/28 14:55:38;;;;;;;0.40;0.30;;;24.20;58.80;;;;;;6076086;28;20172;-55
2022/10/28 14:58:42;;;;;;;0.57;0.30;;;24.00;58.70;;;;;;6070961;28;20037;-56
2022/10/28 15:01:57;;;;;;;0.30;0.30;;;24.10;58.70;;;;;;6073939;28;20051;-50
2022/10/28 15:05:02;;;;;;;0.63;0.20;;;24.40;58.90;;;;;;6065929;28;20038;-53
2022/10/28 15:08:04;;;;;;;0.30;0.10;;;24.30;58.90;;;;;;6050123;28;20169;-54
2022/10/28 15:11:06;;;;;;;0.40;0.20;;;24.20;58.90;;;;;;6091025;28;20060;-57
2022/10/28 15:14:24;;;;;;;0.20;0.10;;;23.80;58.70;;;;;;6124219;28;20799;-57
2022/10/28 15:17:29;;;;;;;0.38;0.20;;;24.20;58.80;;;;;;6120363;28;20052;-55
2022/10/28 15:20:34;;;;;;;0.30;0.20;;;23.80;58.60;;;;;;6100212;28;20055;-57
2022/10/28 15:23:36;;;;;;;0.45;0.20;;;23.60;58.50;;;;;;6113773;28;20033;-57
2022/10/28 15:26:37;;;;;;;0.73;0.30;;;24.30;59.10;;;;;;6108217;28;21379;-56
2022/10/28 15:29:41;;;;;;;0.40;0.30;;;24.20;59.50;;;;;;6111713;28;20048;-57
2022/10/28 15:32:43;;;;;;;0.32;0.30;;;24.20;58.80;;;;;;6116800;28;20902;-56
2022/10/28 15:35:46;;;;;;;0.40;0.30;;;24.20;58.80;;;;;;6125268;28;20041;-55
2022/10/28 15:38:49;;;;;;;0.43;0.20;;;24.30;58.90;;;;;;6112414;28;20052;-55
2022/10/28 15:41:55;;;;;;;0.40;0.10;;;24.10;58.80;;;;;;6109934;28;20050;-59
2022/10/28 15:44:57;;;;;;;0.30;0.30;;;24.00;58.70;;;;;;6146530;28;20045;-55
2022/10/28 15:48:09;;;;;;;0.50;0.20;;;24.30;59.00;;;;;;6136076;28;20343;-57
2022/10/28 15:51:15;;;;;;;0.90;0.40;;;24.20;58.90;;;;;;6110925;28;20053;-54
2022/10/28 15:54:18;;;;;;;1.90;1.05;;;23.90;58.60;;;;;;6138429;28;20045;-56
2022/10/28 15:57:21;;;;;;;1.30;0.70;;;24.10;58.70;;;;;;6108287;28;20040;-55
2022/10/28 16:00:24;;;;;;;0.60;0.50;;;24.00;58.70;;;;;;6069763;28;20060;-55
2022/10/28 16:03:39;;;;;;;0.70;0.60;;;24.20;58.70;;;;;;6138799;28;20132;-55
2022/10/28 16:06:40;;;;;;;0.55;0.30;;;24.20;58.70;;;;;;6135625;28;20049;-52
2022/10/28 16:09:45;;;;;;;0.70;0.40;;;24.30;58.70;;;;;;6073360;28;20895;-52
2022/10/28 16:12:46;;;;;;;0.80;0.40;;;24.30;58.50;;;;;;6122516;28;20033;-56
2022/10/28 16:15:53;;;;;;;0.55;0.30;;;24.20;58.50;;;;;;6131503;28;21429;-51
2022/10/28 16:19:04;;;;;;;0.52;0.30;;;23.90;58.30;;;;;;6118640;28;20192;-51
2022/10/28 16:22:09;;;;;;;0.35;0.25;;;24.00;58.30;;;;;;6154674;28;20819;-53